Time;durP1;ratioP1;P1;durP2;ratioP2;P2;SDS_P1;SDS_P2;PMS_P1;PMS_P2;Temp;Humidity;BMP_temperature;BMP_pressure;BME280_temperature;BME280_humidity;BME280_pressure;Samples;Min_cycle;Max_cycle;Signal;HPM_P1;HPM_P2
2022/04/11 00:00:38;;;;;;;7.13;3.28;;;;;;;;;;6146383;23;20001;-46
2022/04/11 00:03:03;;;;;;;5.25;2.72;;;;;;;;;;6145082;23;20113;-46
2022/04/11 00:05:28;;;;;;;6.80;2.95;;;;;;;;;;6144026;23;20025;-47
2022/04/11 00:07:53;;;;;;;6.75;2.83;;;;;;;;;;6143992;23;20019;-48
2022/04/11 00:10:19;;;;;;;9.10;2.95;;;;;;;;;;6145159;23;20401;-47
2022/04/11 00:12:44;;;;;;;7.50;2.88;;;;;;;;;;6144122;23;20092;-47
2022/04/11 00:15:09;;;;;;;9.52;3.65;;;;;;;;;;6144012;23;20009;-46
2022/04/11 00:17:35;;;;;;;10.13;3.65;;;;;;;;;;6144192;23;20037;-47
2022/04/11 00:20:01;;;;;;;5.90;2.80;;;;;;;;;;6143800;23;20041;-47
2022/04/11 00:22:26;;;;;;;6.57;2.83;;;;;;;;;;6145390;23;20021;-47
2022/04/11 00:24:52;;;;;;;5.15;3.30;;;;;;;;;;6144030;23;20040;-47
2022/04/11 00:27:17;;;;;;;6.32;3.22;;;;;;;;;;6145799;23;20017;-47
2022/04/11 00:29:42;;;;;;;5.25;3.05;;;;;;;;;;6143308;23;20065;-46
2022/04/11 00:32:08;;;;;;;7.20;3.72;;;;;;;;;;6144980;23;20022;-50
2022/04/11 00:34:33;;;;;;;5.93;2.97;;;;;;;;;;6142273;23;20053;-46
2022/04/11 00:36:58;;;;;;;8.35;3.30;;;;;;;;;;6145436;23;20092;-48
2022/04/11 00:39:24;;;;;;;8.98;3.58;;;;;;;;;;6141782;23;20018;-49
2022/04/11 00:41:49;;;;;;;8.18;3.10;;;;;;;;;;6145495;23;20016;-48
2022/04/11 00:44:14;;;;;;;10.65;3.45;;;;;;;;;;6142632;23;20056;-46
2022/04/11 00:46:39;;;;;;;6.53;3.72;;;;;;;;;;6145881;23;20877;-48
2022/04/11 00:49:05;;;;;;;5.45;3.13;;;;;;;;;;6142570;23;20526;-46
2022/04/11 00:51:30;;;;;;;4.90;3.75;;;;;;;;;;6143729;23;20033;-47
2022/04/11 00:53:57;;;;;;;8.50;3.08;;;;;;;;;;6142892;23;20045;-45
2022/04/11 00:56:24;;;;;;;10.13;3.75;;;;;;;;;;6144209;23;20415;-46
2022/04/11 00:58:50;;;;;;;8.23;3.40;;;;;;;;;;6143045;23;20010;-46
2022/04/11 01:01:16;;;;;;;9.18;3.17;;;;;;;;;;6144762;23;20020;-46
2022/04/11 01:03:41;;;;;;;13.50;3.88;;;;;;;;;;6143557;23;20014;-47
2022/04/11 01:06:07;;;;;;;4.72;3.33;;;;;;;;;;6146570;23;20752;-47
2022/04/11 01:08:32;;;;;;;8.68;3.78;;;;;;;;;;6144067;23;20034;-48
2022/04/11 01:10:58;;;;;;;7.47;4.20;;;;;;;;;;6146785;23;20010;-47
2022/04/11 01:13:24;;;;;;;6.82;3.30;;;;;;;;;;6144113;23;20014;-46
2022/04/11 01:16:07;;;;;;;8.10;3.42;;;;;;;;;;6146896;23;20022;-48
2022/04/11 01:18:34;;;;;;;4.55;2.83;;;;;;;;;;6144412;23;20536;-47
2022/04/11 01:20:59;;;;;;;8.60;3.00;;;;;;;;;;6147474;23;20186;-47
2022/04/11 01:23:24;;;;;;;7.68;3.38;;;;;;;;;;6144597;23;20681;-47
2022/04/11 01:25:50;;;;;;;7.97;3.05;;;;;;;;;;6140597;23;20032;-48
2022/04/11 01:28:16;;;;;;;10.32;3.53;;;;;;;;;;6145375;23;20018;-47
2022/04/11 01:30:41;;;;;;;7.03;3.15;;;;;;;;;;6145862;23;20532;-46
2022/04/11 01:33:16;;;;;;;9.30;3.65;;;;;;;;;;6145580;23;20009;-49
2022/04/11 01:35:42;;;;;;;9.13;3.28;;;;;;;;;;6145405;23;20082;-47
2022/04/11 01:38:07;;;;;;;9.27;3.08;;;;;;;;;;6146547;23;20013;-48
2022/04/11 01:40:32;;;;;;;7.95;3.08;;;;;;;;;;6145231;23;20020;-46
2022/04/11 01:42:58;;;;;;;7.85;3.92;;;;;;;;;;6146242;23;20437;-49
2022/04/11 01:45:23;;;;;;;8.05;3.58;;;;;;;;;;6145123;23;20032;-47
2022/04/11 01:47:48;;;;;;;10.07;4.43;;;;;;;;;;6145217;23;20631;-49
2022/04/11 01:50:13;;;;;;;6.53;3.67;;;;;;;;;;6146118;23;20329;-46
2022/04/11 01:52:38;;;;;;;6.72;3.78;;;;;;;;;;6143641;23;20590;-48
2022/04/11 01:55:04;;;;;;;8.57;3.60;;;;;;;;;;6146263;23;20014;-47
2022/04/11 01:57:30;;;;;;;8.43;3.90;;;;;;;;;;6145419;23;20083;-47
2022/04/11 01:59:55;;;;;;;15.07;4.20;;;;;;;;;;6146292;23;20010;-47
2022/04/11 02:02:20;;;;;;;7.00;4.20;;;;;;;;;;6147293;23;20720;-48
2022/04/11 02:04:46;;;;;;;6.43;4.32;;;;;;;;;;6142855;23;20033;-47
2022/04/11 02:07:11;;;;;;;18.58;4.03;;;;;;;;;;6144764;23;20009;-49
2022/04/11 02:09:36;;;;;;;8.63;4.68;;;;;;;;;;6144820;23;20136;-46
2022/04/11 02:12:02;;;;;;;13.45;4.38;;;;;;;;;;6146783;23;20088;-48
2022/04/11 02:14:27;;;;;;;19.67;5.22;;;;;;;;;;6144790;23;20013;-46
2022/04/11 02:16:52;;;;;;;5.63;3.80;;;;;;;;;;6147411;23;20017;-46
2022/04/11 02:19:17;;;;;;;8.80;4.40;;;;;;;;;;6144929;23;20018;-47
2022/04/11 02:21:43;;;;;;;5.65;4.30;;;;;;;;;;6146559;23;20061;-48
2022/04/11 02:24:08;;;;;;;12.65;4.88;;;;;;;;;;6138214;23;20325;-47
2022/04/11 02:26:33;;;;;;;7.03;4.40;;;;;;;;;;6144503;23;20452;-46
2022/04/11 02:28:59;;;;;;;8.55;4.95;;;;;;;;;;6145600;23;20009;-47
2022/04/11 02:31:24;;;;;;;7.57;4.03;;;;;;;;;;6144883;23;20425;-47
2022/04/11 02:33:49;;;;;;;11.40;4.65;;;;;;;;;;6145644;23;20551;-48
2022/04/11 02:36:15;;;;;;;9.88;3.90;;;;;;;;;;6144032;23;20021;-47
2022/04/11 02:38:40;;;;;;;8.93;4.75;;;;;;;;;;6145496;23;20559;-46
2022/04/11 02:41:05;;;;;;;10.30;4.70;;;;;;;;;;6144500;23;20017;-49
2022/04/11 02:43:30;;;;;;;7.70;4.95;;;;;;;;;;6146053;23;20014;-46
2022/04/11 02:45:56;;;;;;;11.05;4.72;;;;;;;;;;6144252;23;20041;-46
2022/04/11 02:48:21;;;;;;;10.98;4.32;;;;;;;;;;6144251;23;20029;-46
2022/04/11 02:50:46;;;;;;;13.93;5.55;;;;;;;;;;6142530;23;20033;-47
2022/04/11 02:53:11;;;;;;;8.77;5.10;;;;;;;;;;6142127;23;20049;-49
2022/04/11 02:55:36;;;;;;;13.90;5.30;;;;;;;;;;6148054;23;20014;-46
2022/04/11 02:58:02;;;;;;;15.15;5.93;;;;;;;;;;6145140;23;20013;-47
2022/04/11 03:00:27;;;;;;;7.63;4.85;;;;;;;;;;6143053;23;20021;-46
2022/04/11 03:02:52;;;;;;;10.85;5.15;;;;;;;;;;6144822;23;20065;-46
2022/04/11 03:05:18;;;;;;;9.85;4.57;;;;;;;;;;6145802;23;20032;-48
2022/04/11 03:07:43;;;;;;;14.13;5.90;;;;;;;;;;6143101;23;20033;-46
2022/04/11 03:10:08;;;;;;;8.88;4.82;;;;;;;;;;6146527;23;20028;-46
2022/04/11 03:12:34;;;;;;;9.95;6.03;;;;;;;;;;6141377;23;20084;-46
2022/04/11 03:14:59;;;;;;;10.27;4.90;;;;;;;;;;6146080;23;20059;-47
2022/04/11 03:17:24;;;;;;;10.05;4.40;;;;;;;;;;6144729;23;20017;-47
2022/04/11 03:19:50;;;;;;;11.32;5.30;;;;;;;;;;6146291;23;20349;-48
2022/04/11 03:22:15;;;;;;;12.45;5.45;;;;;;;;;;6141667;23;20052;-46
2022/04/11 03:24:40;;;;;;;8.02;5.28;;;;;;;;;;6146311;23;20021;-46
2022/04/11 03:27:05;;;;;;;8.05;4.40;;;;;;;;;;6143317;23;20065;-47
2022/04/11 03:29:31;;;;;;;12.68;4.22;;;;;;;;;;6145971;23;20841;-45
2022/04/11 03:31:56;;;;;;;11.45;4.85;;;;;;;;;;6144914;23;20016;-46
2022/04/11 03:34:21;;;;;;;11.98;5.82;;;;;;;;;;6143334;23;20009;-47
2022/04/11 03:36:47;;;;;;;15.23;5.93;;;;;;;;;;6168438;23;20020;-46
2022/04/11 03:39:12;;;;;;;9.82;5.75;;;;;;;;;;6144611;23;20124;-48
2022/04/11 03:41:38;;;;;;;10.10;5.28;;;;;;;;;;6144757;23;20021;-46
2022/04/11 03:44:03;;;;;;;9.93;6.00;;;;;;;;;;6143636;23;20013;-47
2022/04/11 03:46:28;;;;;;;10.63;5.43;;;;;;;;;;6145466;23;20125;-49
2022/04/11 03:48:54;;;;;;;12.18;5.32;;;;;;;;;;6144541;23;20016;-47
2022/04/11 03:51:20;;;;;;;14.68;6.18;;;;;;;;;;6145093;23;20049;-47
2022/04/11 03:53:46;;;;;;;10.43;5.47;;;;;;;;;;6144142;23;20010;-48
2022/04/11 03:56:14;;;;;;;9.48;5.20;;;;;;;;;;6145292;23;20018;-47
2022/04/11 03:58:40;;;;;;;9.05;5.68;;;;;;;;;;6144082;23;20041;-47
2022/04/11 04:01:05;;;;;;;20.50;6.70;;;;;;;;;;6168617;23;20025;-48
2022/04/11 04:03:31;;;;;;;12.25;5.65;;;;;;;;;;6143645;23;20245;-47
2022/04/11 04:05:56;;;;;;;13.90;6.15;;;;;;;;;;6145785;23;20061;-47
2022/04/11 04:08:21;;;;;;;12.90;6.72;;;;;;;;;;6143665;23;20009;-46
2022/04/11 04:10:47;;;;;;;14.52;7.43;;;;;;;;;;6145726;23;20467;-48
2022/04/11 04:13:12;;;;;;;9.18;5.75;;;;;;;;;;6142056;23;20255;-46
2022/04/11 04:15:37;;;;;;;13.68;6.82;;;;;;;;;;6146040;23;20020;-46
2022/04/11 04:18:03;;;;;;;12.48;6.00;;;;;;;;;;6143977;23;20037;-45
2022/04/11 04:20:28;;;;;;;19.42;8.07;;;;;;;;;;6145164;23;20019;-47
2022/04/11 04:22:54;;;;;;;16.95;7.32;;;;;;;;;;6144435;23;20029;-48
2022/04/11 04:25:19;;;;;;;18.40;6.13;;;;;;;;;;6145456;23;20032;-48
2022/04/11 04:27:44;;;;;;;12.50;6.97;;;;;;;;;;6143919;23;20452;-46
2022/04/11 04:30:09;;;;;;;15.10;6.30;;;;;;;;;;6144923;23;20072;-46
2022/04/11 04:32:35;;;;;;;13.18;6.80;;;;;;;;;;6142907;23;20316;-47
2022/04/11 04:35:00;;;;;;;17.55;6.88;;;;;;;;;;6146333;23;20093;-47
2022/04/11 04:37:26;;;;;;;16.52;6.90;;;;;;;;;;6143278;23;20021;-47
2022/04/11 04:39:51;;;;;;;20.60;6.97;;;;;;;;;;6145672;23;20093;-47
2022/04/11 04:42:20;;;;;;;15.82;7.25;;;;;;;;;;6142141;23;20021;-47
2022/04/11 04:44:45;;;;;;;21.38;7.93;;;;;;;;;;6145520;23;20021;-50
2022/04/11 04:47:10;;;;;;;15.52;6.78;;;;;;;;;;6143343;23;20037;-46
2022/04/11 04:49:35;;;;;;;14.10;7.15;;;;;;;;;;6145325;23;20010;-47
2022/04/11 04:52:01;;;;;;;17.80;8.15;;;;;;;;;;6143499;23;20021;-47
2022/04/11 04:54:26;;;;;;;11.80;7.13;;;;;;;;;;6144894;23;20017;-48
2022/04/11 04:56:51;;;;;;;14.00;6.35;;;;;;;;;;6144148;23;20013;-45
2022/04/11 04:59:17;;;;;;;16.77;7.28;;;;;;;;;;6167526;23;20017;-49
2022/04/11 05:01:42;;;;;;;19.80;7.28;;;;;;;;;;6144484;23;20041;-47
2022/04/11 05:04:07;;;;;;;20.00;7.32;;;;;;;;;;6143578;23;20016;-47
2022/04/11 05:06:33;;;;;;;19.95;7.40;;;;;;;;;;6143171;23;20460;-47
2022/04/11 05:08:59;;;;;;;15.35;6.50;;;;;;;;;;6145045;23;20380;-45
2022/04/11 05:11:24;;;;;;;17.75;7.03;;;;;;;;;;6139777;23;20018;-45
2022/04/11 05:13:50;;;;;;;12.88;6.38;;;;;;;;;;6145629;23;20005;-46
2022/04/11 05:16:15;;;;;;;20.88;8.13;;;;;;;;;;6142998;23;20037;-48
2022/04/11 05:18:41;;;;;;;15.07;6.95;;;;;;;;;;6145951;23;20006;-47
2022/04/11 05:21:06;;;;;;;13.82;6.95;;;;;;;;;;6143343;23;20178;-48
2022/04/11 05:23:32;;;;;;;13.45;7.53;;;;;;;;;;6145499;23;20028;-46
2022/04/11 05:25:57;;;;;;;16.70;7.78;;;;;;;;;;6143174;23;20439;-47
2022/04/11 05:28:23;;;;;;;9.80;6.93;;;;;;;;;;6168111;23;20028;-47
2022/04/11 05:30:48;;;;;;;12.27;7.28;;;;;;;;;;6142640;23;20305;-47
2022/04/11 05:33:15;;;;;;;12.25;7.40;;;;;;;;;;6145290;23;20343;-47
2022/04/11 05:35:40;;;;;;;12.95;7.68;;;;;;;;;;6143101;23;20009;-48
2022/04/11 05:38:05;;;;;;;14.20;7.63;;;;;;;;;;6145221;23;20110;-46
2022/04/11 05:40:30;;;;;;;13.77;7.25;;;;;;;;;;6142619;23;20013;-47
2022/04/11 05:42:56;;;;;;;20.25;8.00;;;;;;;;;;6145981;23;20016;-47
2022/04/11 05:45:21;;;;;;;16.30;8.15;;;;;;;;;;6142329;23;20519;-48
2022/04/11 05:47:46;;;;;;;19.38;8.88;;;;;;;;;;6145495;23;20020;-48
2022/04/11 05:50:12;;;;;;;12.00;6.93;;;;;;;;;;6142186;23;20107;-47
2022/04/11 05:52:38;;;;;;;16.45;9.32;;;;;;;;;;6145982;23;20072;-47
2022/04/11 05:55:03;;;;;;;15.75;8.15;;;;;;;;;;6143302;23;20017;-46
2022/04/11 05:57:28;;;;;;;19.67;8.27;;;;;;;;;;6146073;23;20048;-48
2022/04/11 05:59:54;;;;;;;18.27;8.23;;;;;;;;;;6145571;23;20005;-46
2022/04/11 06:02:19;;;;;;;24.00;8.05;;;;;;;;;;6145537;23;20136;-47
2022/04/11 06:04:44;;;;;;;17.48;9.63;;;;;;;;;;6145140;23;20032;-47
2022/04/11 06:07:10;;;;;;;23.95;9.13;;;;;;;;;;6146779;23;20033;-47
2022/04/11 06:09:35;;;;;;;13.13;7.32;;;;;;;;;;6144633;23;20014;-47
2022/04/11 06:12:00;;;;;;;15.73;8.73;;;;;;;;;;6145920;23;20016;-46
2022/04/11 06:14:26;;;;;;;15.55;8.48;;;;;;;;;;6143624;23;20017;-46
2022/04/11 06:16:51;;;;;;;19.52;8.30;;;;;;;;;;6146823;23;20069;-46
2022/04/11 06:19:19;;;;;;;15.60;7.43;;;;;;;;;;6144583;23;20022;-48
2022/04/11 06:21:44;;;;;;;14.77;8.18;;;;;;;;;;6144833;23;20014;-47
2022/04/11 06:24:09;;;;;;;17.67;8.40;;;;;;;;;;6142745;23;20311;-46
2022/04/11 06:26:35;;;;;;;16.20;7.55;;;;;;;;;;6146741;23;20682;-47
2022/04/11 06:29:00;;;;;;;17.70;8.02;;;;;;;;;;6145053;23;20064;-48
2022/04/11 06:31:25;;;;;;;19.60;8.52;;;;;;;;;;6144022;23;20037;-47
2022/04/11 06:33:51;;;;;;;24.33;8.32;;;;;;;;;;6144622;23;20379;-48
2022/04/11 06:36:16;;;;;;;15.05;7.10;;;;;;;;;;6144853;23;20021;-47
2022/04/11 06:38:41;;;;;;;20.73;7.18;;;;;;;;;;6146832;23;20014;-47
2022/04/11 06:41:07;;;;;;;19.80;7.28;;;;;;;;;;6144214;23;20009;-48
2022/04/11 06:43:32;;;;;;;15.27;7.15;;;;;;;;;;6146094;23;20073;-46
2022/04/11 06:45:58;;;;;;;15.35;7.20;;;;;;;;;;6144726;23;20017;-47
2022/04/11 06:48:23;;;;;;;17.27;7.38;;;;;;;;;;6146123;23;20590;-46
2022/04/11 06:50:50;;;;;;;20.73;8.07;;;;;;;;;;6144248;23;20036;-48
2022/04/11 06:53:16;;;;;;;12.65;7.28;;;;;;;;;;6146018;23;20013;-49
2022/04/11 06:55:43;;;;;;;18.50;8.70;;;;;;;;;;6143089;23;20009;-46
2022/04/11 06:58:08;;;;;;;11.55;6.90;;;;;;;;;;6141864;23;20017;-50
2022/04/11 07:00:33;;;;;;;17.88;7.70;;;;;;;;;;6120158;23;20077;-48
2022/04/11 07:02:59;;;;;;;18.63;8.30;;;;;;;;;;6141021;23;20021;-46
2022/04/11 07:05:24;;;;;;;14.50;7.65;;;;;;;;;;6145294;23;20025;-48
2022/04/11 07:07:49;;;;;;;15.38;6.95;;;;;;;;;;6143582;23;20013;-46
2022/04/11 07:10:15;;;;;;;16.25;7.80;;;;;;;;;;6145393;23;20021;-47
2022/04/11 07:12:41;;;;;;;13.07;6.63;;;;;;;;;;6143453;23;20014;-46
2022/04/11 07:15:06;;;;;;;14.50;5.78;;;;;;;;;;6146160;23;20024;-49
2022/04/11 07:17:32;;;;;;;13.35;6.43;;;;;;;;;;6144089;23;20013;-47
2022/04/11 07:19:57;;;;;;;18.13;6.85;;;;;;;;;;6146509;23;20024;-50
2022/04/11 07:22:22;;;;;;;15.20;6.07;;;;;;;;;;6143199;23;20033;-48
2022/04/11 07:24:48;;;;;;;14.57;6.20;;;;;;;;;;6146256;23;20021;-47
2022/04/11 07:27:13;;;;;;;12.38;5.78;;;;;;;;;;6143654;23;20048;-46
2022/04/11 07:29:38;;;;;;;7.75;5.03;;;;;;;;;;6144232;23;20057;-48
2022/04/11 07:32:03;;;;;;;15.32;6.20;;;;;;;;;;6142668;23;20024;-46
2022/04/11 07:34:29;;;;;;;11.80;4.88;;;;;;;;;;6144787;23;20093;-46
2022/04/11 07:36:54;;;;;;;11.35;5.70;;;;;;;;;;6145192;23;20005;-48
2022/04/11 07:39:20;;;;;;;11.70;5.60;;;;;;;;;;6138003;23;20037;-46
2022/04/11 07:41:45;;;;;;;9.68;5.32;;;;;;;;;;6141807;23;20049;-45
2022/04/11 07:44:11;;;;;;;9.13;4.55;;;;;;;;;;6141027;23;20461;-52
2022/04/11 07:46:36;;;;;;;7.35;4.00;;;;;;;;;;6139500;23;20009;-48
2022/04/11 07:49:01;;;;;;;9.15;5.15;;;;;;;;;;6139093;23;20016;-47
2022/04/11 07:51:26;;;;;;;8.30;5.28;;;;;;;;;;6139281;23;20021;-46
2022/04/11 07:53:52;;;;;;;8.77;4.47;;;;;;;;;;6141319;23;20064;-48
2022/04/11 07:56:17;;;;;;;11.60;5.35;;;;;;;;;;6139932;23;20028;-48
2022/04/11 07:58:42;;;;;;;11.50;4.90;;;;;;;;;;6142253;23;20013;-47
2022/04/11 08:01:10;;;;;;;11.00;6.05;;;;;;;;;;6163292;23;20013;-46
2022/04/11 08:03:36;;;;;;;11.18;6.13;;;;;;;;;;6138684;23;20013;-46
2022/04/11 08:06:01;;;;;;;12.13;6.22;;;;;;;;;;6131604;23;20027;-47
2022/04/11 08:08:27;;;;;;;9.95;4.95;;;;;;;;;;6137518;23;20017;-45
2022/04/11 08:10:52;;;;;;;14.32;5.80;;;;;;;;;;6142928;23;20145;-46
2022/04/11 08:13:18;;;;;;;12.35;6.25;;;;;;;;;;6141502;23;20017;-46
2022/04/11 08:15:43;;;;;;;10.05;5.35;;;;;;;;;;6141958;23;20032;-47
2022/04/11 08:18:08;;;;;;;9.25;5.22;;;;;;;;;;6142412;23;20013;-49
2022/04/11 08:20:33;;;;;;;14.15;6.28;;;;;;;;;;6142038;23;20013;-46
2022/04/11 08:22:59;;;;;;;14.93;6.82;;;;;;;;;;6144680;23;20009;-47
2022/04/11 08:25:24;;;;;;;17.25;6.18;;;;;;;;;;6142981;23;20028;-47
2022/04/11 08:27:49;;;;;;;10.68;5.00;;;;;;;;;;6144300;23;20009;-46
2022/04/11 08:30:15;;;;;;;12.02;5.53;;;;;;;;;;6142449;23;20028;-46
2022/04/11 08:32:41;;;;;;;10.63;5.65;;;;;;;;;;6144714;23;20029;-46
2022/04/11 08:35:08;;;;;;;8.18;4.72;;;;;;;;;;6143319;23;20019;-46
2022/04/11 08:37:37;;;;;;;7.38;4.10;;;;;;;;;;6142499;23;20547;-47
2022/04/11 08:40:05;;;;;;;8.90;5.50;;;;;;;;;;6139788;23;20024;-46
2022/04/11 08:42:30;;;;;;;11.88;4.70;;;;;;;;;;6143752;23;21022;-46
2022/04/11 08:44:57;;;;;;;14.05;4.70;;;;;;;;;;6143272;23;20094;-46
2022/04/11 08:47:22;;;;;;;10.88;4.85;;;;;;;;;;6145136;23;20040;-46
2022/04/11 08:49:48;;;;;;;7.70;4.32;;;;;;;;;;6143661;23;20009;-48
2022/04/11 08:52:13;;;;;;;9.70;4.75;;;;;;;;;;6144205;23;20033;-46
2022/04/11 08:54:39;;;;;;;5.40;3.40;;;;;;;;;;6143772;23;20009;-48
2022/04/11 08:57:05;;;;;;;6.80;3.85;;;;;;;;;;6143960;23;20581;-47
2022/04/11 08:59:33;;;;;;;8.95;3.72;;;;;;;;;;6142798;23;20020;-50
2022/04/11 09:01:58;;;;;;;6.95;3.58;;;;;;;;;;6144662;23;20009;-48
2022/04/11 09:04:24;;;;;;;7.38;3.80;;;;;;;;;;6129514;23;20049;-46
2022/04/11 09:06:56;;;;;;;5.88;2.70;;;;;;;;;;6142639;23;20064;-47
2022/04/11 09:09:36;;;;;;;4.78;2.78;;;;;;;;;;6144606;23;20655;-46
2022/04/11 09:12:02;;;;;;;6.25;2.38;;;;;;;;;;6142191;23;20009;-47
2022/04/11 09:14:28;;;;;;;6.93;3.50;;;;;;;;;;6141242;23;20009;-48
2022/04/11 09:16:53;;;;;;;10.35;3.42;;;;;;;;;;6145523;23;20014;-48
2022/04/11 09:19:22;;;;;;;7.30;2.58;;;;;;;;;;6141888;23;20021;-48
2022/04/11 09:21:50;;;;;;;6.38;2.38;;;;;;;;;;6144811;23;20463;-46
2022/04/11 09:24:16;;;;;;;7.35;2.85;;;;;;;;;;6126996;23;20392;-48
2022/04/11 09:26:42;;;;;;;3.50;2.10;;;;;;;;;;6145359;23;20005;-47
2022/04/11 09:29:07;;;;;;;6.88;3.38;;;;;;;;;;6144252;23;20029;-46
2022/04/11 09:31:33;;;;;;;3.85;2.50;;;;;;;;;;6144442;23;20017;-48
2022/04/11 09:33:59;;;;;;;4.05;2.28;;;;;;;;;;6145813;23;20440;-47
2022/04/11 09:36:42;;;;;;;7.57;3.08;;;;;;;;;;6145915;23;20022;-48
2022/04/11 09:39:08;;;;;;;8.55;2.22;;;;;;;;;;6145211;23;20049;-47
2022/04/11 09:41:34;;;;;;;6.07;2.63;;;;;;;;;;6145631;23;20013;-46
2022/04/11 09:44:20;;;;;;;7.55;2.38;;;;;;;;;;6144920;23;20010;-47
2022/04/11 09:46:45;;;;;;;2.92;2.00;;;;;;;;;;6144766;23;20021;-49
2022/04/11 09:49:10;;;;;;;4.18;2.20;;;;;;;;;;6146123;23;20002;-48
2022/04/11 09:51:35;;;;;;;1.88;1.38;;;;;;;;;;6143777;23;20027;-47
2022/04/11 09:54:20;;;;;;;4.35;1.88;;;;;;;;;;6147895;23;20069;-46
2022/04/11 09:56:45;;;;;;;5.25;2.08;;;;;;;;;;6144722;23;20295;-46
2022/04/11 09:59:11;;;;;;;3.58;1.67;;;;;;;;;;6146262;23;20013;-50
2022/04/11 10:01:36;;;;;;;9.77;2.90;;;;;;;;;;6144726;23;20014;-45
2022/04/11 10:04:03;;;;;;;3.63;1.70;;;;;;;;;;6146752;23;20025;-47
2022/04/11 10:06:28;;;;;;;2.78;1.52;;;;;;;;;;6137627;23;20080;-47
2022/04/11 10:08:54;;;;;;;5.40;2.28;;;;;;;;;;6147173;23;20013;-47
2022/04/11 10:11:19;;;;;;;4.22;1.90;;;;;;;;;;6142416;23;20028;-46
2022/04/11 10:13:46;;;;;;;3.88;1.90;;;;;;;;;;6147078;23;20041;-46
2022/04/11 10:16:12;;;;;;;4.68;2.38;;;;;;;;;;6144377;23;20014;-49
2022/04/11 10:18:38;;;;;;;5.72;2.22;;;;;;;;;;6147335;23;20017;-48
2022/04/11 10:21:05;;;;;;;3.58;1.80;;;;;;;;;;6142056;23;20547;-49
2022/04/11 10:23:35;;;;;;;3.72;1.90;;;;;;;;;;6144653;23;20036;-46
2022/04/11 10:26:03;;;;;;;6.78;2.47;;;;;;;;;;6138291;23;20021;-47
2022/04/11 10:28:29;;;;;;;6.93;2.17;;;;;;;;;;6142095;23;20017;-47
2022/04/11 10:31:09;;;;;;;5.22;2.38;;;;;;;;;;6142408;23;20014;-46
2022/04/11 10:33:51;;;;;;;1.77;1.48;;;;;;;;;;6165604;23;20009;-47
2022/04/11 10:36:37;;;;;;;4.82;1.63;;;;;;;;;;6146212;23;20017;-49
2022/04/11 10:39:15;;;;;;;3.00;1.50;;;;;;;;;;6143922;23;20108;-48
2022/04/11 10:42:12;;;;;;;3.65;1.20;;;;;;;;;;6144807;23;20013;-48
2022/04/11 10:44:40;;;;;;;6.13;1.40;;;;;;;;;;6112010;23;20117;-48
2022/04/11 10:47:11;;;;;;;3.10;1.70;;;;;;;;;;6144516;23;20024;-47
2022/04/11 10:49:57;;;;;;;3.88;1.70;;;;;;;;;;6145977;23;20005;-50
2022/04/11 10:52:39;;;;;;;3.83;1.70;;;;;;;;;;6145362;23;20102;-46
2022/04/11 10:55:09;;;;;;;4.20;2.10;;;;;;;;;;6144918;23;20080;-46
2022/04/11 10:57:38;;;;;;;2.85;1.52;;;;;;;;;;6146851;23;20005;-46
2022/04/11 11:00:13;;;;;;;5.35;1.92;;;;;;;;;;6140202;23;20014;-48
2022/04/11 11:02:48;;;;;;;4.18;1.27;;;;;;;;;;6134039;23;20025;-48
2022/04/11 11:05:31;;;;;;;4.75;1.50;;;;;;;;;;6118538;23;20053;-48
2022/04/11 11:08:10;;;;;;;3.47;1.45;;;;;;;;;;6135117;23;20088;-49
2022/04/11 11:10:49;;;;;;;2.38;1.40;;;;;;;;;;6145298;23;20093;-48
2022/04/11 11:13:30;;;;;;;3.20;1.45;;;;;;;;;;6141862;23;20104;-49
2022/04/11 11:16:17;;;;;;;5.55;1.27;;;;;;;;;;6145552;23;20020;-48
2022/04/11 11:18:46;;;;;;;4.20;1.40;;;;;;;;;;6135260;23;20009;-49
2022/04/11 11:21:12;;;;;;;4.47;1.38;;;;;;;;;;6143359;23;20014;-50
2022/04/11 11:23:37;;;;;;;2.85;1.48;;;;;;;;;;6142858;23;20028;-47
2022/04/11 11:26:20;;;;;;;2.95;1.20;;;;;;;;;;6138810;23;20017;-46
2022/04/11 11:28:46;;;;;;;1.88;1.60;;;;;;;;;;6142351;23;20014;-48
2022/04/11 11:31:11;;;;;;;4.13;1.45;;;;;;;;;;6139915;23;20010;-49
2022/04/11 11:33:36;;;;;;;3.00;1.38;;;;;;;;;;6141892;23;20009;-46
2022/04/11 11:36:02;;;;;;;4.15;1.42;;;;;;;;;;6140942;23;20013;-47
2022/04/11 11:38:31;;;;;;;3.60;1.42;;;;;;;;;;6140619;23;20024;-45
2022/04/11 11:40:58;;;;;;;6.88;2.35;;;;;;;;;;6128357;23;20128;-46
2022/04/11 11:43:24;;;;;;;2.20;1.30;;;;;;;;;;6140581;23;20041;-46
2022/04/11 11:45:49;;;;;;;3.67;1.65;;;;;;;;;;6141410;23;20021;-48
2022/04/11 11:48:22;;;;;;;2.25;1.25;;;;;;;;;;6139165;23;20025;-48
2022/04/11 11:50:47;;;;;;;4.45;2.55;;;;;;;;;;6141015;23;20096;-47
2022/04/11 11:53:13;;;;;;;5.28;1.48;;;;;;;;;;6136078;23;20022;-46
2022/04/11 11:55:59;;;;;;;6.10;1.52;;;;;;;;;;6143669;23;20551;-48
2022/04/11 11:58:42;;;;;;;5.68;2.33;;;;;;;;;;6137528;23;20017;-45
2022/04/11 12:01:13;;;;;;;1.98;1.25;;;;;;;;;;6143015;23;20083;-46
2022/04/11 12:06:27;;;;;;;2.10;1.43;;;;;;;;;;6139193;23;20165;-49
2022/04/11 12:08:56;;;;;;;3.65;1.52;;;;;;;;;;6133304;23;20018;-47
2022/04/11 12:11:25;;;;;;;4.95;1.42;;;;;;;;;;6141837;23;20020;-48
2022/04/11 12:14:00;;;;;;;3.20;1.27;;;;;;;;;;6144611;23;20016;-49
2022/04/11 12:16:26;;;;;;;2.53;1.30;;;;;;;;;;6143173;23;20029;-49
2022/04/11 12:18:55;;;;;;;6.15;1.40;;;;;;;;;;6145111;23;20020;-46
2022/04/11 12:21:37;;;;;;;3.15;1.52;;;;;;;;;;6142688;23;20014;-48
2022/04/11 12:24:03;;;;;;;4.78;1.55;;;;;;;;;;6141822;23;20013;-47
2022/04/11 12:26:38;;;;;;;4.93;1.55;;;;;;;;;;6144122;23;20124;-48
2022/04/11 12:29:11;;;;;;;3.03;1.50;;;;;;;;;;6143087;23;20013;-46
2022/04/11 12:31:39;;;;;;;2.67;1.50;;;;;;;;;;6142943;23;20024;-48
2022/04/11 12:34:11;;;;;;;4.35;1.67;;;;;;;;;;6144163;23;20072;-47
2022/04/11 12:36:36;;;;;;;4.68;1.55;;;;;;;;;;6144895;23;20014;-48
2022/04/11 12:39:12;;;;;;;5.80;1.73;;;;;;;;;;6144587;23;20020;-45
2022/04/11 12:41:40;;;;;;;3.13;1.88;;;;;;;;;;6140302;23;20013;-48
2022/04/11 12:44:07;;;;;;;4.85;1.63;;;;;;;;;;6144145;23;20176;-48
2022/04/11 12:46:52;;;;;;;5.05;1.88;;;;;;;;;;6144973;23;20724;-46
2022/04/11 12:49:18;;;;;;;3.30;1.42;;;;;;;;;;6130842;23;20010;-47
2022/04/11 12:51:56;;;;;;;4.28;1.20;;;;;;;;;;6144656;23;20056;-49
2022/04/11 12:54:21;;;;;;;4.13;1.50;;;;;;;;;;6141706;23;20014;-47
2022/04/11 12:56:47;;;;;;;4.68;1.30;;;;;;;;;;6144595;23;20041;-48
2022/04/11 12:59:26;;;;;;;3.85;1.20;;;;;;;;;;6142149;23;20035;-46
2022/04/11 13:01:52;;;;;;;4.28;1.58;;;;;;;;;;6146317;23;20010;-46
2022/04/11 13:04:18;;;;;;;1.60;1.33;;;;;;;;;;6143833;23;20049;-46
2022/04/11 13:06:43;;;;;;;2.28;1.55;;;;;;;;;;6147065;23;20732;-45
2022/04/11 13:09:09;;;;;;;2.80;1.73;;;;;;;;;;6143967;23;20017;-50
2022/04/11 13:11:41;;;;;;;3.47;1.85;;;;;;;;;;6145724;23;20016;-46
2022/04/11 13:14:07;;;;;;;4.38;1.48;;;;;;;;;;6144654;23;20033;-49
2022/04/11 13:19:16;;;;;;;1.58;1.25;;;;;;;;;;6143687;23;20033;-46
2022/04/11 13:21:42;;;;;;;3.72;1.48;;;;;;;;;;6146749;23;20014;-46
2022/04/11 13:24:07;;;;;;;2.20;1.25;;;;;;;;;;6143731;23;20033;-48
2022/04/11 13:26:32;;;;;;;3.95;1.85;;;;;;;;;;6146271;23;20061;-47
2022/04/11 13:28:57;;;;;;;2.15;1.20;;;;;;;;;;6144968;23;20033;-49
2022/04/11 13:31:23;;;;;;;4.00;1.70;;;;;;;;;;6142018;23;20072;-49
2022/04/11 13:33:48;;;;;;;1.50;1.20;;;;;;;;;;6145388;23;20014;-49
2022/04/11 13:36:13;;;;;;;2.92;1.50;;;;;;;;;;6140784;23;20040;-50
2022/04/11 13:38:38;;;;;;;5.18;1.75;;;;;;;;;;6145150;23;20066;-47
2022/04/11 13:41:04;;;;;;;4.60;1.60;;;;;;;;;;6146109;23;20014;-48
2022/04/11 13:43:29;;;;;;;4.90;2.60;;;;;;;;;;6143037;23;20020;-47
2022/04/11 13:45:54;;;;;;;3.45;1.73;;;;;;;;;;6144380;23;20053;-47
2022/04/11 13:48:19;;;;;;;2.90;1.70;;;;;;;;;;6143033;23;20029;-47
2022/04/11 13:50:45;;;;;;;4.53;1.67;;;;;;;;;;6145077;23;20017;-46
2022/04/11 13:53:10;;;;;;;3.70;1.67;;;;;;;;;;6137584;23;20036;-49
2022/04/11 13:55:35;;;;;;;2.40;1.65;;;;;;;;;;6144159;23;20109;-47
2022/04/11 13:58:01;;;;;;;6.40;1.80;;;;;;;;;;6143582;23;20069;-49
2022/04/11 14:00:26;;;;;;;4.70;1.38;;;;;;;;;;6145657;23;20101;-47
2022/04/11 14:02:51;;;;;;;6.97;1.73;;;;;;;;;;6143490;23;20012;-47
2022/04/11 14:05:16;;;;;;;5.40;1.70;;;;;;;;;;6145196;23;20077;-48
2022/04/11 14:07:42;;;;;;;0.93;0.88;;;;;;;;;;6141383;23;20041;-49
2022/04/11 14:10:08;;;;;;;2.47;1.48;;;;;;;;;;6145997;23;20005;-50
2022/04/11 14:12:33;;;;;;;4.00;1.65;;;;;;;;;;6141857;23;20014;-46
2022/04/11 14:14:58;;;;;;;3.13;1.48;;;;;;;;;;6146432;23;20855;-49
2022/04/11 14:17:23;;;;;;;6.53;2.10;;;;;;;;;;6139956;23;20052;-49
2022/04/11 14:19:49;;;;;;;5.63;2.10;;;;;;;;;;6146178;23;20006;-48
2022/04/11 14:22:14;;;;;;;4.97;2.00;;;;;;;;;;6142443;23;20037;-47
2022/04/11 14:24:39;;;;;;;2.83;1.40;;;;;;;;;;6146648;23;20454;-47
2022/04/11 14:27:05;;;;;;;3.20;1.20;;;;;;;;;;6145003;23;20013;-51
2022/04/11 14:29:30;;;;;;;4.35;1.90;;;;;;;;;;6145517;23;20029;-51
2022/04/11 14:31:56;;;;;;;3.35;2.10;;;;;;;;;;6144355;23;20089;-47
2022/04/11 14:34:21;;;;;;;2.97;1.10;;;;;;;;;;6144911;23;20028;-46
2022/04/11 14:36:47;;;;;;;9.90;2.03;;;;;;;;;;6145035;23;20017;-48
2022/04/11 14:39:13;;;;;;;9.85;1.65;;;;;;;;;;6136337;23;20152;-51
2022/04/11 14:41:39;;;;;;;2.45;1.48;;;;;;;;;;6146612;23;20017;-47